Аэропорт: Челябинск. Челябинск

ICAO: USCC

METAR:
2020-10-24 05:30:00
USCC 240530Z 14005MPS 1700 R09/1900U SN BKN008 M02/M03 Q1011 R09/490250 TEMPO 1200 SN VV004 RMK QFE738
METAR:
2020-10-24 03:21:00
TAF AMD USCC 240321Z 2403/2503 13005G10MPS 3000 -SN OVC011 TEMPO 2403/2409 15007G15MPS 1100 SNRA FZRA VV004 FM240900 20005G10MPS 6000 -SHSNRA BKN016CB TEMPO 2409/2418 22003G12MPS 3000 -SHRA BKN011CB FM241800 25003G10MPS 9999 SCT020CB